Time;durP1;ratioP1;P1;durP2;ratioP2;P2;SDS_P1;SDS_P2;PMS_P1;PMS_P2;Temp;Humidity;BMP_temperature;BMP_pressure;BME280_temperature;BME280_humidity;BME280_pressure;Samples;Min_cycle;Max_cycle;Signal;HPM_P1;HPM_P2
2021/10/30 13:57:46;;;;;;;1.95;1.00;;;19.50;99.90;;;;;;5131482;27;20452;-68
2021/10/30 14:00:15;;;;;;;1.73;0.60;;;18.50;99.90;;;;;;5114788;28;20032;-68
2021/10/30 14:02:41;;;;;;;2.88;1.00;;;18.20;99.90;;;;;;5113918;28;20020;-68
2021/10/30 14:05:07;;;;;;;3.22;1.10;;;18.20;99.90;;;;;;5113620;28;20020;-68
2021/10/30 14:07:33;;;;;;;3.33;1.13;;;18.20;99.90;;;;;;5113362;28;20087;-68
2021/10/30 14:10:00;;;;;;;2.72;0.77;;;18.20;99.90;;;;;;5124886;28;20435;-69
2021/10/30 14:12:26;;;;;;;3.00;0.70;;;18.20;99.90;;;;;;5115363;28;20031;-68
2021/10/30 14:14:52;;;;;;;2.90;0.88;;;18.00;99.90;;;;;;5114997;28;20023;-68
2021/10/30 14:17:18;;;;;;;5.88;0.98;;;17.80;99.90;;;;;;5113535;28;20020;-68
2021/10/30 14:19:44;;;;;;;2.65;0.95;;;17.50;99.90;;;;;;5114664;28;20450;-69
2021/10/30 14:22:10;;;;;;;6.45;1.00;;;17.50;99.90;;;;;;5114639;28;20494;-68
2021/10/30 14:24:36;;;;;;;3.55;0.80;;;17.60;99.90;;;;;;5114928;28;20020;-68
2021/10/30 14:27:03;;;;;;;3.50;0.82;;;17.60;99.90;;;;;;5117149;28;20055;-68
2021/10/30 14:29:29;;;;;;;4.32;0.98;;;17.40;99.90;;;;;;5114673;28;20542;-68
2021/10/30 14:31:59;;;;;;;7.85;0.80;;;17.10;99.90;;;;;;5114575;28;20040;-69
2021/10/30 14:34:28;;;;;;;6.60;0.90;;;16.90;99.90;;;;;;5114622;28;20081;-69
2021/10/30 14:36:54;;;;;;;5.22;1.30;;;16.60;99.90;;;;;;5114372;28;20024;-68
2021/10/30 14:39:20;;;;;;;6.88;1.23;;;16.50;99.90;;;;;;5114316;28;20165;-68
2021/10/30 14:41:46;;;;;;;2.47;0.88;;;16.30;99.90;;;;;;5114576;28;20024;-68
2021/10/30 14:44:14;;;;;;;5.22;0.95;;;16.30;99.90;;;;;;5112928;28;20020;-69
2021/10/30 14:46:40;;;;;;;4.07;0.90;;;16.50;99.90;;;;;;5114382;28;20103;-67
2021/10/30 14:49:06;;;;;;;4.93;1.02;;;16.60;99.90;;;;;;5114149;28;20051;-68
2021/10/30 14:51:32;;;;;;;3.60;0.75;;;16.60;99.90;;;;;;5112547;28;20024;-68
2021/10/30 14:53:58;;;;;;;4.57;1.35;;;16.40;99.90;;;;;;5113948;28;20016;-69
2021/10/30 14:56:24;;;;;;;2.60;0.80;;;16.40;99.90;;;;;;5113916;28;20052;-68
2021/10/30 14:58:51;;;;;;;3.25;0.80;;;16.40;99.90;;;;;;5099896;28;20045;-68
2021/10/30 15:01:16;;;;;;;1.85;0.65;;;16.60;99.90;;;;;;5101317;28;20047;-68
2021/10/30 15:03:43;;;;;;;4.13;0.80;;;16.70;99.90;;;;;;5098980;28;20024;-68
2021/10/30 15:06:10;;;;;;;3.05;1.08;;;16.70;99.90;;;;;;5098984;28;20047;-69
2021/10/30 15:08:37;;;;;;;5.70;0.93;;;16.70;99.90;;;;;;5099796;28;20391;-68
2021/10/30 15:11:03;;;;;;;5.20;1.13;;;16.50;99.90;;;;;;5100209;28;20039;-68
2021/10/30 15:13:29;;;;;;;1.40;0.75;;;16.40;99.90;;;;;;5100150;28;20527;-69
2021/10/30 15:15:55;;;;;;;4.53;0.90;;;16.30;99.90;;;;;;5100190;28;20506;-68
2021/10/30 15:18:21;;;;;;;3.15;0.90;;;16.20;99.90;;;;;;5100114;28;20024;-68
2021/10/30 15:20:46;;;;;;;7.88;1.30;;;16.10;99.90;;;;;;5100010;28;20031;-68
2021/10/30 15:23:12;;;;;;;4.50;1.35;;;16.10;99.90;;;;;;5099647;28;20035;-68
2021/10/30 15:25:38;;;;;;;2.85;0.90;;;16.00;99.90;;;;;;5099925;28;20028;-68
2021/10/30 15:28:04;;;;;;;4.90;1.10;;;16.00;99.90;;;;;;5087055;28;20021;-68
2021/10/30 15:30:32;;;;;;;2.80;1.00;;;15.90;99.90;;;;;;5099875;28;20028;-68
2021/10/30 15:32:58;;;;;;;7.95;1.00;;;15.90;99.90;;;;;;5099736;28;20103;-68
2021/10/30 15:35:25;;;;;;;8.10;1.15;;;15.90;99.90;;;;;;5098499;28;20028;-68
2021/10/30 15:37:51;;;;;;;4.18;0.85;;;15.90;99.90;;;;;;5099336;28;20068;-68
2021/10/30 15:40:16;;;;;;;13.73;1.00;;;15.80;99.90;;;;;;5099651;28;20031;-68
2021/10/30 15:42:43;;;;;;;3.95;0.80;;;15.60;99.90;;;;;;5099721;28;20120;-68
2021/10/30 15:45:14;;;;;;;5.38;0.90;;;15.50;99.90;;;;;;5099549;28;21110;-68
2021/10/30 15:47:40;;;;;;;2.80;0.90;;;15.50;99.90;;;;;;5099553;28;20020;-68
2021/10/30 15:50:06;;;;;;;3.53;0.75;;;15.30;99.90;;;;;;5099710;28;20452;-68
2021/10/30 15:52:33;;;;;;;4.55;0.82;;;15.20;99.90;;;;;;5099219;28;20028;-68
2021/10/30 15:54:59;;;;;;;3.35;0.93;;;15.10;99.90;;;;;;5105370;28;20024;-68
2021/10/30 15:57:25;;;;;;;2.20;0.85;;;15.10;99.90;;;;;;5119596;27;20055;-68
2021/10/30 15:59:52;;;;;;;2.17;0.80;;;14.90;99.90;;;;;;5116933;28;20035;-68
2021/10/30 16:02:18;;;;;;;1.60;1.02;;;14.80;99.90;;;;;;5099516;28;20471;-68
2021/10/30 16:04:44;;;;;;;3.90;1.25;;;14.80;99.90;;;;;;5099090;28;20020;-68
2021/10/30 16:07:10;;;;;;;8.50;1.00;;;14.80;99.90;;;;;;5099046;28;20062;-68
2021/10/30 16:09:35;;;;;;;1.17;0.60;;;14.80;99.90;;;;;;5098003;28;20020;-68
2021/10/30 16:12:03;;;;;;;5.00;1.67;;;14.80;99.90;;;;;;5099059;28;20020;-68
2021/10/30 16:14:34;;;;;;;2.75;1.02;;;14.70;99.90;;;;;;5098886;28;20020;-68
2021/10/30 16:17:00;;;;;;;3.42;0.80;;;14.50;99.90;;;;;;5099457;28;20089;-68
2021/10/30 16:19:26;;;;;;;2.40;0.70;;;14.40;99.90;;;;;;5098962;28;20099;-68
2021/10/30 16:21:52;;;;;;;3.67;1.00;;;14.40;99.90;;;;;;5098726;28;20460;-68
2021/10/30 16:24:18;;;;;;;4.80;1.08;;;14.20;99.90;;;;;;5098840;28;20024;-68
2021/10/30 16:26:44;;;;;;;5.78;1.05;;;14.10;99.90;;;;;;5097399;28;20024;-68
2021/10/30 16:29:10;;;;;;;3.15;0.93;;;14.00;99.90;;;;;;5098756;28;20024;-68
2021/10/30 16:31:37;;;;;;;5.43;0.95;;;13.90;99.90;;;;;;5098830;28;20054;-68
2021/10/30 16:34:08;;;;;;;2.70;0.98;;;13.80;99.90;;;;;;5098750;28;20017;-68
2021/10/30 16:36:39;;;;;;;4.78;1.10;;;13.70;99.90;;;;;;5098278;28;20051;-68
2021/10/30 16:39:08;;;;;;;5.50;1.13;;;13.70;99.90;;;;;;5098612;28;20365;-68
2021/10/30 16:41:36;;;;;;;15.30;1.95;;;13.50;99.90;;;;;;5098488;28;20047;-68
2021/10/30 16:44:05;;;;;;;2.35;0.70;;;13.50;99.90;;;;;;5098806;28;20024;-68
2021/10/30 16:46:32;;;;;;;0.85;0.70;;;13.40;99.90;;;;;;5098226;28;20028;-68
2021/10/30 16:48:59;;;;;;;2.13;0.90;;;13.30;99.90;;;;;;5098431;28;20418;-68
2021/10/30 16:51:25;;;;;;;7.15;1.10;;;13.30;99.90;;;;;;5098214;28;20074;-68
2021/10/30 16:53:51;;;;;;;3.65;0.90;;;13.10;99.90;;;;;;5098118;28;20024;-68
2021/10/30 16:56:18;;;;;;;4.60;0.77;;;13.00;99.90;;;;;;5098281;28;20036;-68
2021/10/30 16:58:44;;;;;;;3.67;1.88;;;12.80;99.90;;;;;;5098435;28;20055;-68
2021/10/30 17:01:11;;;;;;;1.92;0.80;;;12.80;99.90;;;;;;5096686;28;20107;-68
2021/10/30 17:03:38;;;;;;;1.23;0.88;;;12.70;99.90;;;;;;5096863;28;20071;-68
2021/10/30 17:06:05;;;;;;;1.00;0.77;;;12.60;99.90;;;;;;5098112;28;20020;-68
2021/10/30 17:08:30;;;;;;;1.58;0.80;;;12.60;99.90;;;;;;5096451;28;20020;-68
2021/10/30 17:10:57;;;;;;;3.38;0.93;;;12.40;99.90;;;;;;5096925;28;20016;-68
2021/10/30 17:13:23;;;;;;;2.83;0.80;;;12.30;99.90;;;;;;5098193;28;20032;-68
2021/10/30 17:15:49;;;;;;;3.20;1.45;;;12.20;99.90;;;;;;5097935;28;20418;-68
2021/10/30 17:18:15;;;;;;;3.05;0.98;;;12.10;99.90;;;;;;5097986;28;20067;-68
2021/10/30 17:20:41;;;;;;;3.33;0.77;;;12.00;99.90;;;;;;5097552;28;20028;-68
2021/10/30 17:23:07;;;;;;;2.33;1.05;;;12.00;99.90;;;;;;5097556;28;20396;-68
2021/10/30 17:25:34;;;;;;;7.38;1.35;;;11.80;99.90;;;;;;5097795;28;20022;-68
2021/10/30 17:28:00;;;;;;;5.57;1.00;;;11.70;99.90;;;;;;5097834;28;20093;-68
2021/10/30 17:30:26;;;;;;;4.25;1.05;;;11.70;99.90;;;;;;5097693;28;20020;-68
2021/10/30 17:32:52;;;;;;;2.65;1.35;;;11.70;99.90;;;;;;5097782;28;20026;-68
2021/10/30 17:35:18;;;;;;;7.13;1.23;;;11.60;99.90;;;;;;5097780;28;20017;-68
2021/10/30 17:37:44;;;;;;;1.52;0.98;;;11.50;99.90;;;;;;5097486;28;20039;-68
2021/10/30 17:40:12;;;;;;;4.85;0.93;;;11.50;99.90;;;;;;5097453;28;20024;-68
2021/10/30 17:42:38;;;;;;;5.32;1.67;;;11.40;99.90;;;;;;5097899;28;20027;-68
2021/10/30 17:45:06;;;;;;;5.82;1.30;;;11.40;99.90;;;;;;5097471;28;20016;-68
2021/10/30 17:47:32;;;;;;;10.32;2.70;;;11.40;99.90;;;;;;5097490;28;20031;-68
2021/10/30 17:49:57;;;;;;;3.80;1.20;;;11.30;99.90;;;;;;5097509;28;20016;-68
2021/10/30 17:52:24;;;;;;;3.83;1.65;;;11.30;99.90;;;;;;5097323;28;20099;-68
2021/10/30 17:54:50;;;;;;;1.13;0.88;;;11.10;99.90;;;;;;5097228;28;20024;-68
2021/10/30 17:57:16;;;;;;;3.15;1.45;;;11.10;99.90;;;;;;5097235;28;20105;-68
2021/10/30 17:59:42;;;;;;;2.50;1.33;;;11.10;99.90;;;;;;5096093;28;20020;-68
2021/10/30 18:02:11;;;;;;;3.05;1.92;;;11.10;99.90;;;;;;5084934;28;20153;-68
2021/10/30 18:04:38;;;;;;;3.95;1.63;;;11.10;99.90;;;;;;5097485;28;20110;-68
2021/10/30 18:07:05;;;;;;;5.40;1.30;;;11.10;99.90;;;;;;5096933;28;20494;-68
2021/10/30 18:09:31;;;;;;;3.63;1.63;;;11.00;99.90;;;;;;5097217;28;20060;-67
2021/10/30 18:11:58;;;;;;;2.20;1.42;;;10.90;99.90;;;;;;5097485;28;20024;-68
2021/10/30 18:14:24;;;;;;;3.90;1.55;;;11.00;99.90;;;;;;5097182;28;20020;-68
2021/10/30 18:16:51;;;;;;;3.92;1.30;;;10.90;99.90;;;;;;5097676;28;20103;-68
2021/10/30 18:19:18;;;;;;;7.30;1.83;;;10.80;99.90;;;;;;5097301;28;20444;-68
2021/10/30 18:21:45;;;;;;;2.60;1.30;;;10.80;99.90;;;;;;5097122;28;20432;-68
2021/10/30 18:24:10;;;;;;;3.00;1.13;;;10.80;99.90;;;;;;5095782;28;20024;-68
2021/10/30 18:26:36;;;;;;;3.17;1.40;;;10.80;99.90;;;;;;5097344;28;20035;-68
2021/10/30 18:29:03;;;;;;;5.53;1.55;;;10.90;99.90;;;;;;5095693;28;20035;-68
2021/10/30 18:31:29;;;;;;;1.88;1.30;;;10.80;99.90;;;;;;5097460;28;20036;-68
2021/10/30 18:33:55;;;;;;;6.20;1.50;;;10.70;99.90;;;;;;5100487;28;20024;-68
2021/10/30 18:36:21;;;;;;;5.53;1.73;;;10.80;99.90;;;;;;5100802;28;20028;-68
2021/10/30 18:38:47;;;;;;;4.82;1.20;;;10.80;99.90;;;;;;5100665;28;20028;-68
2021/10/30 18:41:13;;;;;;;2.80;1.30;;;10.70;99.90;;;;;;5100833;28;20668;-68
2021/10/30 18:43:40;;;;;;;3.92;1.45;;;10.70;99.90;;;;;;5100922;28;20031;-68
2021/10/30 18:46:06;;;;;;;4.15;2.00;;;10.70;99.90;;;;;;5100741;28;20039;-68
2021/10/30 18:48:32;;;;;;;3.13;1.13;;;10.60;99.90;;;;;;5100653;28;20514;-68
2021/10/30 18:50:58;;;;;;;3.25;1.23;;;10.70;99.90;;;;;;5100684;28;20020;-68
2021/10/30 18:53:25;;;;;;;8.80;1.95;;;10.60;99.90;;;;;;5100146;28;20078;-68
2021/10/30 18:55:50;;;;;;;2.30;1.27;;;10.50;99.90;;;;;;5100480;28;20122;-68
2021/10/30 18:58:16;;;;;;;4.43;1.33;;;10.50;99.90;;;;;;5100383;28;20020;-68
2021/10/30 19:00:42;;;;;;;3.97;1.25;;;10.50;99.90;;;;;;5099040;28;20032;-68
2021/10/30 19:03:09;;;;;;;7.00;2.00;;;10.60;99.90;;;;;;5100437;28;20024;-68
2021/10/30 19:05:35;;;;;;;4.45;1.70;;;10.50;99.90;;;;;;5100394;28;20031;-68
2021/10/30 19:08:02;;;;;;;6.15;1.77;;;10.60;99.90;;;;;;5100018;28;20016;-68
2021/10/30 19:10:28;;;;;;;3.10;1.40;;;10.50;99.90;;;;;;5100846;28;20081;-68
2021/10/30 19:12:56;;;;;;;7.43;1.30;;;10.40;99.90;;;;;;5100052;28;20388;-68
2021/10/30 19:15:26;;;;;;;5.57;1.40;;;10.50;99.90;;;;;;5100256;28;20024;-68
2021/10/30 19:17:52;;;;;;;3.80;2.47;;;10.30;99.90;;;;;;5099966;28;20441;-68
2021/10/30 19:20:19;;;;;;;2.85;1.58;;;10.40;99.90;;;;;;5100100;28;20026;-68
2021/10/30 19:22:45;;;;;;;2.75;1.48;;;10.50;99.90;;;;;;5099637;28;20381;-68
2021/10/30 19:25:11;;;;;;;5.07;1.40;;;10.50;99.90;;;;;;5099992;28;20101;-68
2021/10/30 19:27:38;;;;;;;5.88;1.38;;;10.50;99.90;;;;;;5099851;28;20020;-68
2021/10/30 19:30:09;;;;;;;2.10;1.20;;;10.30;99.90;;;;;;5099852;28;20028;-68
2021/10/30 19:32:35;;;;;;;5.20;1.17;;;10.40;99.90;;;;;;5099656;28;20051;-68
2021/10/30 19:35:01;;;;;;;1.83;1.48;;;10.30;99.90;;;;;;5098495;28;20032;-68
2021/10/30 19:37:27;;;;;;;2.53;1.73;;;10.20;99.90;;;;;;5099254;28;20027;-67
2021/10/30 19:39:53;;;;;;;3.17;1.50;;;10.30;99.90;;;;;;5099592;28;20036;-68
2021/10/30 19:42:21;;;;;;;6.35;1.50;;;10.30;99.90;;;;;;5099543;28;20551;-68
2021/10/30 19:44:47;;;;;;;2.25;1.30;;;10.20;99.90;;;;;;5099728;28;20105;-68
2021/10/30 19:47:13;;;;;;;6.25;2.22;;;10.30;99.90;;;;;;5099290;28;20039;-68
2021/10/30 19:49:39;;;;;;;3.47;1.27;;;10.20;99.90;;;;;;5099819;28;20387;-68
2021/10/30 19:52:05;;;;;;;5.47;1.52;;;10.20;99.90;;;;;;5098909;28;20069;-68
2021/10/30 19:54:32;;;;;;;5.30;1.77;;;10.30;99.90;;;;;;5099514;28;20039;-68
2021/10/30 19:57:00;;;;;;;6.03;1.45;;;10.20;99.90;;;;;;5099066;28;20058;-67
2021/10/30 19:59:26;;;;;;;4.78;1.92;;;10.20;99.90;;;;;;5099349;28;20050;-68
2021/10/30 20:01:52;;;;;;;10.30;3.65;;;10.20;99.90;;;;;;5112134;28;20063;-68
2021/10/30 20:04:18;;;;;;;1.13;1.02;;;10.20;99.90;;;;;;5099259;28;20157;-67
2021/10/30 20:06:46;;;;;;;6.15;1.58;;;10.20;99.90;;;;;;5098696;28;20107;-67
2021/10/30 20:09:13;;;;;;;5.13;1.23;;;10.30;99.90;;;;;;5097864;28;20111;-68
2021/10/30 20:11:41;;;;;;;1.77;1.25;;;10.10;99.90;;;;;;5099057;28;20016;-67
2021/10/30 20:14:10;;;;;;;8.13;1.70;;;10.10;99.90;;;;;;5099035;28;20027;-68
2021/10/30 20:16:37;;;;;;;4.68;1.38;;;10.10;99.90;;;;;;5098842;28;20020;-68
2021/10/30 20:19:04;;;;;;;5.50;1.50;;;10.10;99.90;;;;;;5097676;28;20028;-68
2021/10/30 20:21:30;;;;;;;1.95;1.50;;;10.10;99.90;;;;;;5097160;28;20051;-68
2021/10/30 20:24:00;;;;;;;4.47;1.70;;;10.10;99.90;;;;;;5098904;28;20430;-68
2021/10/30 20:26:27;;;;;;;2.05;1.77;;;10.20;99.90;;;;;;5098925;28;20023;-68
2021/10/30 20:29:00;;;;;;;6.80;1.70;;;10.10;99.90;;;;;;5098679;28;20376;-68
2021/10/30 20:31:27;;;;;;;5.35;1.77;;;10.30;99.90;;;;;;5098859;28;20023;-68
2021/10/30 20:33:53;;;;;;;6.88;2.17;;;10.10;99.90;;;;;;5098618;28;20024;-68
2021/10/30 20:36:22;;;;;;;7.65;2.60;;;10.30;99.90;;;;;;5098598;28;20035;-67
2021/10/30 20:38:50;;;;;;;7.72;2.13;;;10.20;99.90;;;;;;5098354;28;20383;-67
2021/10/30 20:41:18;;;;;;;8.82;2.10;;;10.20;99.90;;;;;;5098545;28;20028;-68
2021/10/30 20:43:44;;;;;;;6.05;2.03;;;10.30;99.90;;;;;;5097099;28;20020;-68
2021/10/30 20:46:10;;;;;;;3.83;1.70;;;10.20;99.90;;;;;;5098733;28;20099;-68
2021/10/30 20:48:36;;;;;;;2.75;1.58;;;10.30;99.90;;;;;;5098268;28;20073;-68
2021/10/30 20:51:02;;;;;;;2.92;1.58;;;10.30;99.90;;;;;;5098313;28;20027;-67
2021/10/30 20:53:28;;;;;;;5.07;2.15;;;10.20;99.90;;;;;;5097975;28;20866;-68
2021/10/30 20:55:55;;;;;;;4.38;1.55;;;10.20;99.90;;;;;;5097959;28;20063;-68
2021/10/30 20:58:21;;;;;;;3.97;1.88;;;10.20;99.90;;;;;;5098315;28;20032;-68
2021/10/30 21:00:48;;;;;;;3.10;1.80;;;10.20;99.90;;;;;;5099080;28;20020;-68
2021/10/30 21:03:16;;;;;;;6.80;1.83;;;10.40;99.90;;;;;;5098125;28;20024;-68
2021/10/30 21:05:42;;;;;;;4.47;1.83;;;10.30;99.90;;;;;;5098075;28;20027;-68
2021/10/30 21:08:11;;;;;;;5.22;2.00;;;10.20;99.90;;;;;;5097664;28;20092;-68
2021/10/30 21:10:38;;;;;;;8.15;3.65;;;10.30;99.90;;;;;;5096739;28;20020;-68
2021/10/30 21:13:04;;;;;;;7.53;2.05;;;10.10;99.90;;;;;;5097918;28;20020;-68
2021/10/30 21:15:31;;;;;;;3.03;1.60;;;10.20;99.90;;;;;;5096699;28;20111;-68
2021/10/30 21:17:58;;;;;;;3.65;2.00;;;10.20;99.90;;;;;;5097831;28;20027;-68
2021/10/30 21:20:24;;;;;;;3.95;2.00;;;10.20;99.90;;;;;;5096834;28;20095;-68
2021/10/30 21:22:51;;;;;;;7.80;2.58;;;10.30;99.90;;;;;;5097307;28;20028;-68
2021/10/30 21:25:17;;;;;;;6.25;2.65;;;10.20;99.90;;;;;;5097801;28;20027;-68
2021/10/30 21:27:43;;;;;;;7.32;3.35;;;10.10;99.90;;;;;;5096305;28;20028;-68
2021/10/30 21:30:09;;;;;;;8.20;2.60;;;10.20;99.90;;;;;;5097809;28;20024;-68
2021/10/30 21:32:35;;;;;;;5.15;2.80;;;10.30;99.90;;;;;;5097637;28;20507;-68
2021/10/30 21:35:01;;;;;;;5.28;2.10;;;10.40;99.90;;;;;;5097744;28;20042;-68
2021/10/30 21:37:27;;;;;;;4.40;2.42;;;10.30;99.90;;;;;;5097203;28;20510;-68
2021/10/30 21:39:53;;;;;;;8.90;2.72;;;10.30;99.90;;;;;;5097734;28;20020;-68
2021/10/30 21:42:19;;;;;;;7.15;2.13;;;10.30;99.90;;;;;;5097551;28;20359;-68
2021/10/30 21:44:45;;;;;;;6.22;2.55;;;10.20;99.90;;;;;;5096314;28;20035;-68
2021/10/30 21:47:11;;;;;;;8.07;3.20;;;10.20;99.90;;;;;;5097395;28;20400;-68
2021/10/30 21:49:38;;;;;;;6.53;2.63;;;10.10;99.90;;;;;;5097559;28;20157;-68
2021/10/30 21:52:04;;;;;;;2.83;2.40;;;10.20;99.90;;;;;;5096985;28;20480;-68
2021/10/30 21:54:30;;;;;;;7.13;2.70;;;10.30;99.90;;;;;;5097412;28;20016;-68
2021/10/30 21:56:56;;;;;;;10.32;3.58;;;10.20;99.90;;;;;;5095911;28;20040;-68
2021/10/30 21:59:22;;;;;;;6.47;3.13;;;10.20;99.90;;;;;;5096165;28;20024;-68
2021/10/30 22:01:49;;;;;;;12.82;2.80;;;10.30;99.90;;;;;;5098112;28;20369;-68
2021/10/30 22:04:16;;;;;;;8.32;2.38;;;10.40;99.90;;;;;;5097422;28;20051;-68
2021/10/30 22:06:42;;;;;;;4.50;2.90;;;10.30;99.90;;;;;;5095525;28;20040;-68
2021/10/30 22:09:09;;;;;;;5.60;2.72;;;10.30;99.90;;;;;;5101535;28;20070;-68
2021/10/30 22:11:35;;;;;;;7.22;3.05;;;10.30;99.90;;;;;;5100029;28;20047;-68
2021/10/30 22:14:06;;;;;;;10.93;3.38;;;10.30;99.90;;;;;;5101529;28;20020;-67
2021/10/30 22:16:38;;;;;;;8.10;2.70;;;10.20;99.90;;;;;;5101194;28;20396;-68
2021/10/30 22:19:05;;;;;;;9.15;3.05;;;10.20;99.90;;;;;;5101335;28;20028;-68
2021/10/30 22:21:32;;;;;;;6.90;3.80;;;10.20;99.90;;;;;;5099606;28;20110;-68
2021/10/30 22:23:58;;;;;;;7.22;2.45;;;10.10;99.90;;;;;;5101248;28;20016;-68
2021/10/30 22:26:24;;;;;;;11.50;2.60;;;10.20;99.90;;;;;;5101141;28;20104;-68
2021/10/30 22:28:50;;;;;;;6.28;2.72;;;10.20;99.90;;;;;;5101178;28;20042;-67
2021/10/30 22:31:18;;;;;;;11.02;3.00;;;10.20;99.90;;;;;;5101075;28;20024;-68
2021/10/30 22:33:44;;;;;;;5.90;2.47;;;10.20;99.90;;;;;;5099636;28;20040;-67
2021/10/30 22:36:11;;;;;;;11.40;2.83;;;10.10;99.90;;;;;;5100762;28;20115;-68
2021/10/30 22:38:37;;;;;;;10.20;2.67;;;10.20;99.90;;;;;;5100850;28;20074;-67
2021/10/30 22:41:03;;;;;;;8.73;2.78;;;10.30;99.90;;;;;;5101090;28;20487;-68
2021/10/30 22:43:30;;;;;;;6.20;2.70;;;10.30;99.90;;;;;;5100659;28;20653;-68
2021/10/30 22:45:56;;;;;;;9.85;2.72;;;10.50;99.90;;;;;;5100748;28;20549;-68
2021/10/30 22:48:22;;;;;;;11.40;3.90;;;10.50;99.90;;;;;;5099391;28;20020;-67
2021/10/30 22:50:48;;;;;;;6.97;2.42;;;10.50;99.90;;;;;;5100602;28;20024;-68
2021/10/30 22:53:14;;;;;;;5.65;2.08;;;10.60;99.90;;;;;;5100318;28;20044;-67
2021/10/30 22:55:40;;;;;;;5.43;2.45;;;10.60;99.90;;;;;;5100470;28;20102;-68
2021/10/30 22:58:06;;;;;;;8.30;2.13;;;10.70;99.90;;;;;;5100583;28;20028;-68
2021/10/30 23:00:32;;;;;;;14.52;3.15;;;10.70;99.90;;;;;;5107853;28;20032;-68
2021/10/30 23:02:59;;;;;;;7.88;2.03;;;10.70;99.90;;;;;;5106762;28;20031;-68
2021/10/30 23:05:28;;;;;;;5.65;1.80;;;10.70;99.90;;;;;;5100457;28;20032;-68
2021/10/30 23:07:54;;;;;;;5.03;2.13;;;10.80;99.90;;;;;;5100127;28;20031;-68
2021/10/30 23:10:20;;;;;;;10.25;2.45;;;10.80;99.90;;;;;;5100648;28;20077;-67
2021/10/30 23:12:46;;;;;;;9.35;2.13;;;10.90;99.90;;;;;;5100337;28;20447;-67
2021/10/30 23:15:12;;;;;;;6.63;1.90;;;10.80;99.90;;;;;;5100550;28;20111;-68
2021/10/30 23:17:39;;;;;;;5.82;1.60;;;10.90;99.90;;;;;;5099994;28;20036;-67
2021/10/30 23:20:06;;;;;;;7.65;1.55;;;10.90;99.90;;;;;;5100244;28;20430;-67
2021/10/30 23:22:33;;;;;;;5.53;1.70;;;11.00;99.90;;;;;;5099757;28;20476;-67
2021/10/30 23:24:59;;;;;;;5.10;1.40;;;11.00;99.90;;;;;;5100417;28;20049;-68
2021/10/30 23:27:25;;;;;;;3.50;1.50;;;11.00;99.90;;;;;;5099976;28;20048;-68
2021/10/30 23:29:51;;;;;;;5.55;1.75;;;11.10;99.90;;;;;;5100042;28;20023;-67
2021/10/30 23:32:17;;;;;;;5.18;1.52;;;11.10;99.90;;;;;;5099908;28;20487;-68
2021/10/30 23:34:43;;;;;;;4.72;1.42;;;11.00;99.90;;;;;;5100033;28;20016;-68
2021/10/30 23:37:09;;;;;;;3.90;1.33;;;11.00;99.90;;;;;;5098147;28;20031;-68
2021/10/30 23:39:35;;;;;;;4.18;1.55;;;11.10;99.90;;;;;;5099833;28;20487;-67
2021/10/30 23:42:01;;;;;;;4.97;1.38;;;11.20;99.90;;;;;;5099527;28;20107;-67
2021/10/30 23:44:27;;;;;;;6.80;2.47;;;11.10;99.90;;;;;;5099818;28;20047;-67
2021/10/30 23:46:53;;;;;;;2.20;1.33;;;11.10;99.90;;;;;;5099634;28;20032;-67
2021/10/30 23:49:19;;;;;;;6.00;1.65;;;11.10;99.90;;;;;;5099825;28;20388;-68
2021/10/30 23:51:44;;;;;;;9.00;2.03;;;11.20;99.90;;;;;;5099199;28;20025;-68
2021/10/30 23:54:10;;;;;;;3.35;1.10;;;11.00;99.90;;;;;;5099488;28;20069;-68
2021/10/30 23:56:36;;;;;;;7.07;1.45;;;11.00;99.90;;;;;;5099188;28;20096;-68
2021/10/30 23:59:03;;;;;;;7.53;1.52;;;11.00;99.90;;;;;;5099466;28;20034;-67
